Latest Weather Observations for Larapuna (Eddystone Point)

IDT60801

Issued at 3:05 am EST Friday 1 August 2014 (issued every 30 minutes, with the page automatically refreshed every 10 minutes)

About weather observations | Map of weather stations | Latest weather observations for TAS | Other Formats
Station Details ID: 092045 Name: LARAPUNA (EDDYSTONE POINT) Lat: -40.99 Lon: 148.35 Height: 19.7 m
Data from the previous 72 hours. | See also: Recent months at Larapuna (Eddystone Point)
Date/Time
EST
Temp
°C
App
Temp
°C
Dew
Point
Rel
Hum
%
Delta-T
°C
Wind Press
QNH
hPa
Press
MSL
hPa
Rain
since 9 am
mm
Dir
 
Spd
km/h
Gust
km/h
Spd
kts
Gust
kts
01/03:00am 7.1 -0.2 2.4 72 2.0 WNW 30 50 16 27 993.1 993.1 7.8
01/02:57am 7.2 -0.1 2.5 72 2.0 WNW 30 50 16 27 993.0 - 7.8
01/02:30am 7.2 -0.7 2.5 72 2.0 WNW 33 48 18 26 992.7 - 7.8
01/02:00am 7.1 1.0 2.6 73 1.9 WNW 24 35 13 19 992.7 992.7 7.8
01/01:30am 7.1 -0.5 2.8 74 1.8 WNW 32 46 17 25 992.8 - 7.8
01/01:21am 7.1 0.3 3.2 76 1.7 W 28 46 15 25 992.7 - 7.8
01/01:00am 6.7 0.3 3.1 78 1.5 WNW 26 37 14 20 992.4 992.4 7.8
01/12:30am 6.6 0.6 3.6 81 1.3 W 24 39 13 21 992.2 - 7.8
01/12:00am 6.4 1.2 3.6 82 1.2 WNW 20 35 11 19 991.9 991.9 7.6
 
Date/Time
EST
Temp
°C
App
Temp
°C
Dew
Point
Rel
Hum
%
Delta-T
°C
Wind Press
QNH
hPa
Press
MSL
hPa
Rain
since 9 am
mm
Dir
 
Spd
km/h
Gust
km/h
Spd
kts
Gust
kts
31/11:30pm 6.4 -1.3 3.6 82 1.2 W 33 52 18 28 991.5 - 7.6
31/11:00pm 8.0 -1.5 4.0 76 1.8 WNW 43 63 23 34 990.5 990.5 7.4
31/10:30pm 8.5 -0.2 3.9 73 2.0 WNW 39 57 21 31 990.2 - 6.8
31/10:15pm 8.3 -0.1 3.9 74 1.9 NW 37 57 20 31 990.1 - 6.8
31/10:00pm 7.8 0.0 4.9 82 1.3 NW 35 48 19 26 990.2 990.2 6.8
31/09:30pm 7.0 -2.0 4.3 83 1.2 NW 41 59 22 32 990.5 - 6.8
31/09:22pm 6.7 -2.0 4.0 83 1.2 WNW 39 59 21 32 990.7 - 6.8
31/09:15pm 6.5 -2.3 3.7 82 1.2 WNW 39 50 21 27 990.6 - 6.8
31/09:00pm 6.9 -5.6 4.0 82 1.3 WNW 59 83 32 45 991.0 991.0 6.4
31/08:56pm 7.9 -4.6 4.3 78 1.6 WNW 59 83 32 45 990.5 - 6.0
31/08:51pm 8.5 0.3 4.5 76 1.8 WNW 37 70 20 38 990.3 - 5.8
31/08:30pm 8.1 1.3 5.0 81 1.4 WNW 30 52 16 28 990.0 - 5.8
31/08:18pm 8.2 1.4 5.1 81 1.4 WNW 30 50 16 27 990.3 - 5.8
31/08:00pm 7.9 -0.2 5.2 83 1.2 WNW 37 50 20 27 989.9 989.9 5.8
31/07:30pm 8.6 0.3 4.2 74 1.9 NW 37 61 20 33 989.9 - 5.4
31/07:04pm 8.0 1.3 5.5 84 1.1 NW 30 48 16 26 989.7 - 5.2
31/07:00pm 7.8 1.1 5.4 85 1.1 NW 30 37 16 20 989.7 989.7 5.2
31/06:30pm 7.8 -1.4 5.3 84 1.1 W 43 69 23 37 989.8 - 4.8
31/06:22pm 8.3 -0.2 5.1 80 1.4 W 39 57 21 31 989.6 - 4.6
31/06:20pm 8.7 0.6 5.1 78 1.6 W 37 46 20 25 989.6 - 4.6
31/06:00pm 9.2 -1.4 5.0 75 1.9 WNW 50 76 27 41 988.7 988.7 4.4
31/05:30pm 7.5 0.8 5.6 88 0.9 WNW 30 54 16 29 988.7 - 4.4
31/05:16pm 7.2 -0.9 5.3 88 0.8 WNW 37 56 20 30 988.7 - 4.0
31/05:09pm 7.1 -1.4 5.3 88 0.8 W 39 48 21 26 988.9 - 4.0
31/05:00pm 7.3 -5.7 5.3 87 0.9 WNW 63 89 34 48 989.1 989.1 3.6
31/04:56pm 7.5 -6.6 5.6 88 0.9 WNW 69 89 37 48 989.0 - 3.4
31/04:55pm 7.7 -1.6 5.8 88 0.9 W 44 82 24 44 988.9 - 3.2
31/04:45pm 8.1 0.6 6.2 88 0.9 W 35 57 19 31 988.0 - 2.8
31/04:30pm 8.8 -2.7 7.3 90 0.7 WNW 57 78 31 42 987.7 - 2.4
31/04:29pm 8.9 -2.9 7.4 90 0.7 WNW 59 78 32 42 987.6 - 2.4
31/04:28pm 8.9 -3.3 7.4 90 0.7 WNW 61 78 33 42 987.6 - 2.4
31/04:00pm 9.4 1.1 7.7 89 0.8 WNW 41 63 22 34 986.8 986.8 0.8
31/03:30pm 9.5 0.5 7.3 86 1.0 W 44 69 24 37 985.8 - 0.4
31/03:15pm 10.4 1.5 7.8 84 1.3 W 44 67 24 36 985.6 - 0.4
31/03:14pm 10.5 1.8 7.7 83 1.3 W 43 57 23 31 985.6 - 0.4
31/03:08pm 11.6 -1.8 7.3 75 2.1 W 67 87 36 47 985.2 - 0.2
31/03:00pm 15.4 2.1 7.7 60 3.9 NW 67 95 36 51 983.9 983.9 0.0
31/02:30pm 15.8 1.9 7.3 57 4.2 NW 70 100 38 54 984.5 - 0.0
31/02:00pm 15.6 1.9 7.4 58 4.1 NNW 69 98 37 53 985.2 985.2 0.0
31/01:30pm 16.1 4.1 8.1 59 4.0 NNW 61 83 33 45 986.0 - 0.0
31/01:00pm 16.2 3.8 8.2 59 4.1 NNW 63 83 34 45 986.8 986.8 0.0
31/12:30pm 15.5 3.5 8.3 62 3.6 NNW 61 89 33 48 987.9 - 0.0
31/12:00pm 15.4 3.4 8.2 62 3.7 NNW 61 95 33 51 988.6 988.6 0.0
31/11:30am 15.8 4.9 8.8 63 3.6 NNW 56 82 30 44 989.4 - 0.0
31/11:00am 14.7 4.2 8.9 68 3.0 NNW 54 72 29 39 990.4 990.4 0.0
31/10:30am 14.7 2.4 8.6 67 3.1 NNW 63 87 34 47 991.1 - 0.0
31/10:00am 15.4 2.4 8.6 64 3.5 NNW 67 93 36 50 991.8 991.8 0.0
31/09:30am 14.8 2.9 8.5 66 3.2 NNW 61 85 33 46 992.1 - 0.0
31/09:00am 14.7 2.0 8.4 66 3.2 NNW 65 95 35 51 992.5 992.5 2.0
31/08:30am 14.9 2.1 7.9 63 3.5 NNW 65 102 35 55 993.0 - 2.0
31/08:00am 14.5 2.1 8.2 66 3.2 NNW 63 83 34 45 993.5 993.5 2.0
31/07:30am 14.4 3.3 8.6 68 2.9 NNW 57 80 31 43 993.8 - 2.0
31/07:00am 14.3 3.2 8.7 69 2.9 NNW 57 85 31 46 994.2 994.2 2.0
31/06:30am 14.4 3.5 9.0 70 2.7 NNW 56 80 30 43 994.5 - 2.0
31/06:00am 14.2 3.8 9.4 73 2.5 NNW 54 83 29 45 995.0 995.0 2.0
31/05:37am 14.2 3.9 9.6 74 2.4 NNW 54 89 29 48 995.2 - 2.0
31/05:31am 14.2 4.2 9.4 73 2.5 NNW 52 70 28 38 995.3 - 2.0
31/05:30am 14.2 3.8 9.4 73 2.5 NNW 54 70 29 38 995.3 - 2.0
31/05:00am 14.2 2.6 9.8 75 2.3 NW 61 83 33 45 995.6 995.6 2.0
31/04:30am 14.1 3.8 9.7 75 2.3 NNW 54 78 29 42 995.8 - 2.0
31/04:00am 14.1 2.4 9.5 74 2.4 NW 61 83 33 45 995.9 995.9 2.0
31/03:30am 14.1 2.9 9.7 75 2.3 NW 59 80 32 43 996.1 - 2.0
31/03:00am 14.1 2.4 9.5 74 2.4 NW 61 80 33 43 996.2 996.2 2.0
31/02:30am 14.0 2.4 9.8 76 2.2 NW 61 82 33 44 996.4 - 2.0
31/02:00am 13.6 3.1 10.4 81 1.7 NNW 56 80 30 43 997.1 997.1 2.0
31/01:30am 13.5 2.9 10.1 80 1.8 NW 56 76 30 41 997.7 - 2.0
31/01:00am 13.3 2.9 10.5 83 1.5 NW 56 76 30 41 998.0 998.0 2.0
31/12:30am 12.8 2.2 10.7 87 1.1 NW 57 85 31 46 998.3 - 2.0
31/12:00am 13.0 3.0 10.7 86 1.2 NW 54 78 29 42 998.8 998.8 1.0
 
Date/Time
EST
Temp
°C
App
Temp
°C
Dew
Point
Rel
Hum
%
Delta-T
°C
Wind Press
QNH
hPa
Press
MSL
hPa
Rain
since 9 am
mm
Dir
 
Spd
km/h
Gust
km/h
Spd
kts
Gust
kts
30/11:30pm 13.2 3.1 10.4 83 1.5 NW 54 78 29 42 999.2 - 0.8
30/11:04pm 12.9 3.5 10.1 83 1.4 NW 50 69 27 37 999.4 - 0.8
30/11:00pm 12.9 3.5 10.3 84 1.4 NW 50 63 27 34 999.4 999.4 0.8
30/10:30pm 12.5 2.7 10.2 86 1.2 NW 52 80 28 43 999.7 - 0.8
30/10:00pm 13.1 3.2 11.2 88 1.0 NW 54 76 29 41 999.7 999.7 0.4
30/09:30pm 12.8 1.7 10.3 85 1.3 WNW 59 89 32 48 1000.1 - 0.2
30/09:00pm 13.9 2.5 10.5 80 1.8 NW 61 80 33 43 999.8 999.8 0.2
30/08:30pm 13.9 3.0 10.9 82 1.6 NW 59 85 32 46 1000.0 - 0.2
30/08:00pm 13.7 3.6 10.3 80 1.8 NW 54 72 29 39 1000.1 1000.1 0.2
30/07:30pm 13.8 4.1 10.6 81 1.7 NW 52 83 28 45 1000.3 - 0.2
30/07:00pm 13.6 4.4 10.8 83 1.5 NW 50 74 27 40 1000.5 1000.5 0.2
30/06:30pm 13.6 4.1 11.1 85 1.3 NW 52 74 28 40 1000.4 - 0.2
30/06:00pm 13.2 4.4 11.1 87 1.1 NW 48 76 26 41 1000.2 1000.2 0.2
30/05:30pm 13.7 3.4 10.9 83 1.5 NW 56 76 30 41 1000.0 - 0.2
30/05:00pm 13.7 3.1 10.5 81 1.7 NW 57 83 31 45 999.7 999.7 0.2
30/04:30pm 14.1 3.4 10.3 78 2.0 NW 57 83 31 45 999.6 - 0.2
30/04:00pm 13.9 2.6 10.7 81 1.7 NW 61 89 33 48 999.1 999.1 0.2
30/03:30pm 13.8 1.7 10.8 82 1.6 NW 65 91 35 49 998.6 - 0.2
30/03:00pm 14.0 1.8 10.2 78 2.0 NW 65 96 35 52 998.4 998.4 0.2
30/02:30pm 14.8 2.9 10.2 74 2.4 WNW 63 83 34 45 998.2 - 0.2
30/02:00pm 14.5 0.9 10.1 75 2.3 WNW 72 100 39 54 998.0 998.0 0.2
30/01:30pm 14.7 1.7 10.1 74 2.4 WNW 69 91 37 49 998.1 - 0.2
30/01:00pm 14.7 1.3 9.5 71 2.7 WNW 70 102 38 55 998.6 998.6 0.2
30/12:30pm 14.8 0.4 9.8 72 2.6 WNW 76 109 41 59 999.0 - 0.2
30/12:28pm 14.7 -0.5 9.7 72 2.6 WNW 80 100 43 54 998.9 - 0.2
30/12:00pm 14.1 2.5 9.9 76 2.2 WNW 61 93 33 50 999.5 999.5 0.2
30/11:30am 13.8 2.2 9.6 76 2.2 WNW 61 89 33 48 1000.1 - 0.2
30/11:00am 13.1 2.5 9.9 81 1.7 WNW 56 89 30 48 1001.1 1001.1 0.2
30/10:30am 13.8 3.6 10.2 79 1.9 WNW 54 76 29 41 1001.4 - 0.0
30/10:00am 12.9 2.8 10.3 84 1.4 NW 54 72 29 39 1001.7 1001.7 0.0
30/09:30am 11.8 2.3 9.9 88 1.0 WNW 50 72 27 39 1001.8 - 0.0
30/09:00am 12.6 3.1 8.5 76 2.0 WNW 48 69 26 37 1002.1 1002.1 18.6
30/08:41am 12.6 3.7 7.7 72 2.4 WNW 44 63 24 34 1002.2 - 18.6
30/08:30am 12.3 3.6 7.6 73 2.3 WNW 43 57 23 31 1002.3 - 18.6
30/08:00am 11.6 2.8 7.3 75 2.1 WNW 43 61 23 33 1002.2 1002.2 18.6
30/07:43am 11.4 3.3 6.9 74 2.1 WNW 39 57 21 31 1002.0 - 18.6
30/07:30am 11.3 3.1 6.6 73 2.2 WNW 39 56 21 30 1002.1 - 18.6
30/07:05am 11.5 2.5 6.2 70 2.5 WNW 43 61 23 33 1002.3 - 18.6
30/07:00am 11.4 2.7 5.9 69 2.6 WNW 41 57 22 31 1002.3 1002.3 18.6
30/06:30am 11.4 2.2 5.5 67 2.7 WNW 43 63 23 34 1002.1 - 18.6
30/06:18am 11.5 1.8 5.8 68 2.7 WNW 46 65 25 35 1001.7 - 18.6
30/06:00am 11.3 2.2 6.0 70 2.5 WNW 43 59 23 32 1001.6 1001.6 18.6
30/05:49am 11.5 2.8 5.8 68 2.7 WNW 41 63 22 34 1001.5 - 18.6
30/05:30am 11.4 3.4 5.7 68 2.6 WNW 37 54 20 29 1001.4 - 18.6
30/05:00am 11.7 3.2 5.1 64 3.0 WNW 39 57 21 31 1001.3 1001.3 18.6
30/04:30am 12.0 3.1 5.0 62 3.2 WNW 41 59 22 32 1001.2 - 18.6
30/04:00am 12.2 3.4 5.4 63 3.2 WNW 41 63 22 34 1000.7 1000.7 18.6
30/03:31am 12.5 3.1 5.4 62 3.3 WNW 44 63 24 34 1000.2 - 18.6
30/03:30am 12.3 3.1 5.5 63 3.2 WNW 43 59 23 32 1000.3 - 18.6
30/03:09am 12.7 2.6 5.6 62 3.3 WNW 48 87 26 47 999.7 - 18.6
30/03:00am 12.6 3.8 7.1 69 2.7 WNW 43 63 23 34 999.6 999.6 18.6
30/02:30am 12.7 2.9 7.0 68 2.7 WNW 48 72 26 39 999.1 - 18.6
30/02:00am 12.9 2.6 6.7 66 3.0 WNW 50 69 27 37 998.9 998.9 18.6
30/01:30am 12.9 2.7 7.1 68 2.8 WNW 50 78 27 42 998.4 - 18.6
30/01:00am 12.9 1.7 6.0 63 3.3 WNW 54 85 29 46 998.0 998.0 18.6
30/12:30am 13.0 2.3 6.4 64 3.1 WNW 52 82 28 44 997.7 - 18.6
30/12:00am 12.9 2.6 8.0 72 2.4 WNW 52 72 28 39 997.7 997.7 18.6
 
Date/Time
EST
Temp
°C
App
Temp
°C
Dew
Point
Rel
Hum
%
Delta-T
°C
Wind Press
QNH
hPa
Press
MSL
hPa
Rain
since 9 am
mm
Dir
 
Spd
km/h
Gust
km/h
Spd
kts
Gust
kts
29/11:30pm 13.0 3.4 7.9 71 2.5 WNW 48 69 26 37 997.5 - 18.6
29/11:00pm 12.6 3.1 6.6 67 2.9 WNW 46 67 25 36 997.3 997.3 18.6
29/10:30pm 13.2 1.3 7.2 67 2.9 WNW 59 85 32 46 997.0 - 18.6
29/10:13pm 13.2 1.2 8.1 71 2.5 WNW 61 95 33 51 996.8 - 18.6
29/10:01pm 12.9 4.5 8.8 76 2.1 WNW 43 80 23 43 996.8 - 18.6
29/10:00pm 12.7 4.6 8.6 76 2.1 WNW 41 59 22 32 996.8 996.8 18.6
29/09:30pm 12.5 2.5 9.3 81 1.6 WNW 52 72 28 39 996.5 - 18.6
29/09:00pm 12.8 3.3 9.8 82 1.5 WNW 50 72 27 39 996.2 996.2 18.4
29/08:30pm 13.5 4.4 9.7 78 1.9 WNW 48 69 26 37 995.8 - 18.4
29/08:00pm 13.1 3.5 9.4 78 1.9 WNW 50 72 27 39 995.5 995.5 18.4
29/07:30pm 13.0 2.4 10.7 86 1.2 WNW 57 83 31 45 995.1 - 18.4
29/07:00pm 13.0 3.6 11.4 90 0.9 WNW 52 76 28 41 994.6 994.6 18.4
29/06:30pm 13.6 3.9 11.7 88 1.0 NW 54 82 29 44 994.1 - 15.6
29/06:00pm 12.8 3.4 11.4 91 0.7 NW 52 74 28 40 994.3 994.3 15.6
29/05:30pm 12.7 1.9 11.4 92 0.7 NW 59 87 32 47 994.7 - 15.2
29/05:03pm 12.8 2.9 11.2 90 0.8 NW 54 72 29 39 994.4 - 12.0
29/05:00pm 12.8 2.5 11.2 90 0.8 NW 56 72 30 39 994.4 994.4 12.0
29/04:33pm 12.8 1.9 11.0 89 0.9 NW 59 80 32 43 994.6 - 11.8
29/04:30pm 13.0 2.2 11.1 88 1.0 NW 59 76 32 41 994.5 - 11.8
29/04:00pm 12.6 1.7 11.0 90 0.8 NW 59 85 32 46 994.4 994.4 11.8
29/03:30pm 12.4 2.9 11.1 92 0.7 NW 52 72 28 39 995.2 - 11.6
29/03:24pm 12.4 3.6 11.1 92 0.7 NW 48 72 26 39 995.5 - 11.6
29/03:06pm 11.9 5.5 10.6 92 0.7 WNW 35 54 19 29 995.8 - 11.4
29/03:00pm 11.4 4.8 10.1 92 0.7 WNW 35 52 19 28 995.7 995.7 11.4
29/02:30pm 11.3 2.2 9.7 90 0.8 WNW 48 72 26 39 996.0 - 9.6
29/02:00pm 12.9 2.9 10.6 86 1.2 NW 54 74 29 40 995.8 995.8 5.0
29/01:30pm 12.2 0.9 10.8 91 0.7 NW 61 85 33 46 995.7 - 5.0
29/01:09pm 12.3 2.0 11.0 92 0.7 NW 56 74 30 40 995.9 - 4.0
29/01:00pm 12.2 1.9 10.9 92 0.7 NW 56 72 30 39 995.9 995.9 3.6
29/12:35pm 12.0 2.0 10.9 93 0.6 NNW 54 72 29 39 996.0 - 1.8
29/12:30pm 12.1 2.1 10.8 92 0.7 NNW 54 69 29 37 996.1 - 1.6
29/12:00pm 13.1 0.6 10.6 85 1.3 NW 67 93 36 50 996.0 996.0 0.2
29/11:30am 14.1 1.9 10.3 78 2.0 NW 65 98 35 53 996.6 - 0.0
29/11:00am 13.7 2.2 10.3 80 1.8 NW 61 87 33 47 997.4 997.4 0.0
29/10:30am 12.9 0.7 10.4 85 1.3 NW 65 87 35 47 998.0 - 0.0
29/10:00am 13.7 1.4 10.1 79 1.9 NW 65 85 35 46 998.0 998.0 0.0
29/09:30am 13.2 2.1 10.2 82 1.6 NNW 59 78 32 42 998.7 - 0.0
29/09:00am 13.4 2.7 10.2 81 1.7 NNW 57 80 31 43 999.1 999.1 18.4
29/08:30am 13.1 2.5 10.1 82 1.5 NNW 56 78 30 42 999.6 - 18.4
29/08:00am 12.7 1.7 10.4 86 1.2 NNW 59 80 32 43 999.4 999.4 18.2
29/07:30am 12.3 2.6 10.4 88 1.0 NW 52 70 28 38 999.7 - 18.0
29/07:07am 12.2 2.1 10.4 89 0.9 NNW 54 72 29 39 999.8 - 17.8
29/07:00am 12.1 2.0 10.3 89 0.9 NNW 54 69 29 37 999.9 999.9 17.8
29/06:40am 12.0 3.4 10.4 90 0.8 NW 46 65 25 35 1000.4 - 17.6
29/06:30am 12.0 2.6 10.2 89 0.9 NW 50 65 27 35 1000.6 - 17.4
29/06:10am 12.1 2.7 10.2 88 1.0 NW 50 69 27 37 1000.6 - 16.6
29/06:00am 12.1 2.3 10.0 87 1.1 NW 52 69 28 37 1000.7 1000.7 16.6
29/05:30am 12.7 1.0 9.5 81 1.6 NW 61 80 33 43 1000.2 - 16.4
29/05:00am 12.3 0.0 9.9 85 1.2 NW 65 89 35 48 999.4 999.4 16.4
29/04:30am 12.3 -0.1 9.7 84 1.3 NW 65 85 35 46 999.9 - 16.2
29/04:00am 12.4 1.2 9.8 84 1.3 NW 59 83 32 45 1000.6 1000.6 16.2
29/03:42am 12.2 1.4 9.9 86 1.2 NW 57 80 31 43 1001.0 - 16.2
29/03:30am 11.9 1.6 9.6 86 1.2 NW 54 69 29 37 1001.3 - 16.2

Other Formats:

Comma delimited format used in spreadsheet applications
http://www.bom.gov.au/fwo/IDT60801/IDT60801.94983.axf

JavaScript Object Notation format (JSON) in row-major order
http://www.bom.gov.au/fwo/IDT60801/IDT60801.94983.json